createdAt,value
2022-09-28T00:01:17.530Z,90.84
2022-09-28T00:03:49.144Z,90.58
2022-09-28T00:06:18.669Z,90.97
2022-09-28T00:08:46.048Z,91.91
2022-09-28T00:11:15.564Z,92.35
2022-09-28T00:13:44.018Z,93.28
2022-09-28T00:16:14.138Z,93.80
2022-09-28T00:18:41.711Z,94.22
2022-09-28T00:21:14.951Z,94.71
2022-09-28T00:24:01.477Z,94.00
2022-09-28T00:26:30.119Z,94.58
2022-09-28T00:29:01.982Z,94.66
2022-09-28T00:31:32.789Z,94.52
2022-09-28T00:34:05.315Z,95.78
2022-09-28T00:36:34.011Z,96.67
2022-09-28T00:39:07.503Z,97.49
2022-09-28T00:41:34.910Z,96.27
2022-09-28T00:44:26.274Z,95.38
2022-09-28T00:47:21.149Z,95.02
2022-09-28T00:49:56.712Z,95.31
2022-09-28T00:52:41.835Z,94.73
2022-09-28T00:55:13.585Z,93.75
2022-09-28T00:57:44.570Z,92.95
2022-09-28T01:00:12.096Z,89.72
2022-09-28T01:02:39.021Z,89.13
2022-09-28T01:05:10.299Z,87.68
2022-09-28T01:07:38.483Z,88.89
2022-09-28T01:10:06.039Z,88.00
2022-09-28T01:12:33.039Z,87.04
2022-09-28T01:15:01.924Z,86.99
2022-09-28T01:17:31.787Z,86.18
2022-09-28T01:20:23.322Z,87.11
2022-09-28T01:23:31.626Z,88.14
2022-09-28T01:26:17.392Z,88.16
2022-09-28T01:28:47.266Z,88.66
2022-09-28T01:31:16.072Z,88.86
2022-09-28T01:33:54.730Z,88.86
2022-09-28T01:36:30.326Z,88.94
2022-09-28T01:39:05.431Z,88.35
2022-09-28T01:41:36.587Z,89.12
2022-09-28T01:44:08.744Z,88.86
2022-09-28T01:46:42.185Z,89.02
2022-09-28T01:49:15.078Z,89.18
2022-09-28T01:51:44.728Z,88.84
2022-09-28T01:54:15.060Z,89.87
2022-09-28T01:56:51.418Z,89.33
2022-09-28T01:59:24.754Z,89.28
2022-09-28T02:02:22.179Z,89.17
2022-09-28T02:04:55.487Z,89.08
2022-09-28T02:07:31.306Z,88.72
2022-09-28T02:10:07.056Z,89.54
2022-09-28T02:12:44.501Z,89.17
2022-09-28T02:15:19.197Z,89.01
2022-09-28T02:17:46.408Z,89.08
2022-09-28T02:20:14.167Z,89.79
2022-09-28T02:22:53.552Z,91.40
2022-09-28T02:25:31.443Z,90.97
2022-09-28T02:28:04.801Z,90.17
2022-09-28T02:30:35.423Z,88.18
2022-09-28T02:33:10.805Z,89.23
2022-09-28T02:35:38.707Z,88.16
2022-09-28T02:38:05.651Z,87.31
2022-09-28T02:40:34.977Z,87.30
2022-09-28T02:43:24.272Z,86.84
2022-09-28T02:46:39.352Z,85.09
2022-09-28T02:49:23.631Z,85.81
2022-09-28T02:52:11.691Z,85.19
2022-09-28T02:54:51.000Z,85.34
2022-09-28T02:57:43.637Z,83.75
2022-09-28T03:00:31.738Z,86.63
2022-09-28T03:03:13.020Z,86.48
2022-09-28T03:06:05.249Z,87.02
2022-09-28T03:09:20.422Z,85.78
2022-09-28T03:11:53.834Z,86.00
2022-09-28T03:14:20.814Z,85.10
2022-09-28T03:16:47.663Z,85.46
2022-09-28T03:19:17.350Z,84.97
2022-09-28T03:21:44.177Z,85.64
2022-09-28T03:24:11.224Z,84.37
2022-09-28T03:26:39.240Z,85.22
2022-09-28T03:29:06.090Z,85.77
2022-09-28T03:31:33.052Z,86.52
2022-09-28T03:33:59.988Z,85.46
2022-09-28T03:36:26.845Z,85.00
2022-09-28T03:38:56.133Z,85.87
2022-09-28T03:41:27.797Z,86.33
2022-09-28T03:43:54.932Z,85.63
2022-09-28T03:46:21.888Z,85.85
2022-09-28T03:48:48.938Z,87.05
2022-09-28T03:51:15.744Z,85.77
2022-09-28T03:53:42.483Z,85.52
2022-09-28T03:56:14.563Z,86.84
2022-09-28T03:58:41.624Z,86.24
2022-09-28T04:01:16.545Z,83.31
2022-09-28T04:03:44.381Z,84.95
2022-09-28T04:06:11.230Z,86.21
2022-09-28T04:08:38.101Z,84.94
2022-09-28T04:11:05.356Z,83.83
2022-09-28T04:13:32.316Z,83.91
2022-09-28T04:16:01.309Z,83.39
2022-09-28T04:18:28.745Z,83.99
